createdAt,value
2024-01-06T00:02:22.961Z,30.07
2024-01-06T00:04:49.744Z,33.27
2024-01-06T00:07:16.565Z,30.43
2024-01-06T00:09:43.618Z,32.80
2024-01-06T00:12:11.145Z,31.57
2024-01-06T00:14:38.003Z,31.67
2024-01-06T00:17:05.026Z,32.97
2024-01-06T00:19:32.137Z,40.13
2024-01-06T00:21:58.976Z,40.90
2024-01-06T00:24:25.912Z,30.83
2024-01-06T00:26:52.821Z,30.97
2024-01-06T00:29:19.730Z,30.13
2024-01-06T00:31:46.679Z,29.33
2024-01-06T00:34:13.858Z,30.77
2024-01-06T00:36:40.754Z,33.50
2024-01-06T00:39:07.715Z,30.77
2024-01-06T00:41:34.933Z,32.40
2024-01-06T00:44:01.743Z,30.73
2024-01-06T00:46:28.576Z,32.40
2024-01-06T00:48:55.695Z,39.97
2024-01-06T00:51:23.364Z,29.27
2024-01-06T00:53:50.493Z,30.57
2024-01-06T00:56:17.483Z,28.80
2024-01-06T00:58:44.317Z,28.67
2024-01-06T01:01:11.267Z,28.87
2024-01-06T01:03:38.312Z,28.77
2024-01-06T01:06:05.200Z,26.73
2024-01-06T01:08:32.151Z,27.50
2024-01-06T01:10:59.055Z,26.67
2024-01-06T01:13:25.959Z,26.93
2024-01-06T01:15:53.102Z,27.53
2024-01-06T01:18:20.121Z,26.00
2024-01-06T01:20:47.381Z,27.17
2024-01-06T01:23:14.255Z,28.13
2024-01-06T01:25:41.091Z,28.23
2024-01-06T01:28:08.188Z,27.87
2024-01-06T01:30:35.063Z,28.30
2024-01-06T01:33:02.147Z,27.27
2024-01-06T01:35:29.037Z,26.50
2024-01-06T01:37:55.945Z,26.80
2024-01-06T01:40:22.924Z,28.37
2024-01-06T01:42:49.914Z,27.10
2024-01-06T01:45:16.871Z,26.80
2024-01-06T01:47:43.818Z,27.97
2024-01-06T01:50:11.375Z,28.13
2024-01-06T01:52:38.258Z,27.70
2024-01-06T01:55:05.550Z,28.00
2024-01-06T01:57:32.838Z,27.67
2024-01-06T02:00:01.361Z,28.77
2024-01-06T02:02:29.844Z,28.40
2024-01-06T02:04:57.289Z,27.73
2024-01-06T02:07:24.343Z,26.30
2024-01-06T02:09:51.238Z,26.87
2024-01-06T02:12:18.136Z,28.70
2024-01-06T02:14:45.124Z,28.83
2024-01-06T02:17:11.899Z,26.80
2024-01-06T02:19:41.658Z,26.20
2024-01-06T02:22:08.687Z,26.77
2024-01-06T02:24:35.551Z,27.17
2024-01-06T02:27:02.473Z,26.77
2024-01-06T02:29:29.375Z,27.30
2024-01-06T02:31:56.193Z,27.70
2024-01-06T02:34:23.180Z,26.90
2024-01-06T02:36:50.702Z,26.90
2024-01-06T02:39:17.565Z,27.30
2024-01-06T02:41:44.544Z,26.47
2024-01-06T02:44:13.759Z,25.27
2024-01-06T02:46:40.951Z,27.43
2024-01-06T02:49:09.200Z,26.73
2024-01-06T02:51:36.260Z,25.27
2024-01-06T02:54:03.139Z,28.37
2024-01-06T02:56:30.057Z,29.27
2024-01-06T02:58:56.903Z,29.30
2024-01-06T03:01:23.855Z,26.33
2024-01-06T03:03:50.829Z,27.60
2024-01-06T03:06:17.866Z,28.73
2024-01-06T03:08:44.686Z,29.17
2024-01-06T03:11:12.070Z,29.70
2024-01-06T03:13:38.990Z,28.77
2024-01-06T03:16:08.628Z,31.07
2024-01-06T03:18:35.825Z,30.17
2024-01-06T03:21:02.843Z,29.73
2024-01-06T03:23:29.623Z,31.20
2024-01-06T03:25:56.485Z,30.47
2024-01-06T03:28:23.395Z,29.57
2024-01-06T03:30:50.329Z,29.90
2024-01-06T03:33:17.346Z,31.20
2024-01-06T03:35:44.348Z,29.10
2024-01-06T03:38:11.139Z,27.23
2024-01-06T03:40:38.013Z,26.53
2024-01-06T03:43:04.891Z,28.23
2024-01-06T03:45:31.849Z,26.60
2024-01-06T03:47:58.836Z,26.93
2024-01-06T03:50:25.901Z,28.23
2024-01-06T03:52:52.804Z,28.90
2024-01-06T03:55:19.605Z,29.00
2024-01-06T03:57:46.497Z,29.17
2024-01-06T04:00:13.587Z,30.43
2024-01-06T04:02:40.382Z,30.97
2024-01-06T04:05:07.481Z,28.63
2024-01-06T04:07:34.270Z,27.83
2024-01-06T04:10:01.383Z,27.53
2024-01-06T04:12:28.301Z,28.10
2024-01-06T04:14:55.156Z,28.13
2024-01-06T04:17:22.235Z,28.43
2024-01-06T04:19:49.200Z,29.77
2024-01-06T04:22:16.232Z,29.63
2024-01-06T04:24:43.071Z,29.23
2024-01-06T04:27:11.204Z,30.67
2024-01-06T04:29:39.381Z,29.30
2024-01-06T04:32:07.034Z,30.43
2024-01-06T04:34:33.982Z,30.30
2024-01-06T04:37:00.953Z,35.60
2024-01-06T04:39:28.283Z,34.23
2024-01-06T04:41:55.135Z,33.00
2024-01-06T04:44:22.724Z,31.90
2024-01-06T04:46:49.791Z,29.20
2024-01-06T04:49:16.655Z,32.27
2024-01-06T04:51:43.668Z,30.63
2024-01-06T04:54:10.501Z,32.70
2024-01-06T04:56:37.393Z,30.83
2024-01-06T04:59:04.255Z,30.43
2024-01-06T05:01:31.334Z,29.93
2024-01-06T05:03:58.360Z,30.50
2024-01-06T05:06:25.516Z,31.47
2024-01-06T05:08:52.491Z,29.30
2024-01-06T05:11:19.313Z,29.93
2024-01-06T05:13:46.432Z,30.73
2024-01-06T05:16:13.349Z,28.93
2024-01-06T05:18:40.367Z,29.90
2024-01-06T05:21:07.424Z,29.13
2024-01-06T05:23:34.288Z,28.50
2024-01-06T05:26:01.158Z,28.70
2024-01-06T05:28:28.196Z,30.20
2024-01-06T05:30:55.148Z,28.17
2024-01-06T05:33:22.226Z,29.50
2024-01-06T05:35:49.352Z,31.43
2024-01-06T05:38:18.375Z,30.83
2024-01-06T05:40:45.174Z,29.37
2024-01-06T05:43:12.213Z,28.67
2024-01-06T05:45:39.240Z,30.33
2024-01-06T05:48:09.883Z,31.27
2024-01-06T05:50:36.870Z,31.37
2024-01-06T05:53:03.774Z,31.10
2024-01-06T05:55:30.654Z,30.97
2024-01-06T05:57:57.749Z,32.63
2024-01-06T06:00:24.596Z,31.77
2024-01-06T06:02:51.430Z,32.70
2024-01-06T06:05:18.474Z,35.10
2024-01-06T06:07:45.383Z,34.83
2024-01-06T06:10:12.515Z,33.27
2024-01-06T06:12:40.345Z,34.70
2024-01-06T06:15:07.743Z,33.80
2024-01-06T06:17:35.110Z,35.30
2024-01-06T06:20:02.320Z,34.37
2024-01-06T06:22:31.813Z,33.40
2024-01-06T06:24:59.483Z,33.47
2024-01-06T06:27:27.751Z,33.40
2024-01-06T06:29:54.930Z,32.33
2024-01-06T06:32:21.777Z,33.80
2024-01-06T06:34:48.653Z,34.73
2024-01-06T06:37:15.847Z,34.17
2024-01-06T06:39:45.376Z,33.57
2024-01-06T06:42:12.774Z,37.83
2024-01-06T06:44:39.661Z,37.77
2024-01-06T06:47:06.548Z,34.87
2024-01-06T06:49:33.408Z,43.17
2024-01-06T06:52:00.401Z,38.57
2024-01-06T06:54:27.339Z,32.73
2024-01-06T06:56:54.197Z,34.03
2024-01-06T06:59:21.135Z,33.13
2024-01-06T07:01:47.945Z,33.30
2024-01-06T07:04:14.874Z,34.57
2024-01-06T07:06:41.988Z,33.53
2024-01-06T07:09:08.925Z,34.50
2024-01-06T07:11:35.760Z,33.77
2024-01-06T07:14:02.733Z,33.10
2024-01-06T07:16:29.599Z,33.67
2024-01-06T07:18:56.735Z,33.10
2024-01-06T07:21:24.682Z,35.70
2024-01-06T07:23:51.664Z,34.40
2024-01-06T07:26:19.123Z,35.17
2024-01-06T07:28:46.116Z,34.27
2024-01-06T07:31:13.193Z,32.10
2024-01-06T07:33:41.231Z,32.63
2024-01-06T07:36:08.123Z,43.30
2024-01-06T07:38:34.993Z,31.20
2024-01-06T07:41:01.991Z,31.63
2024-01-06T07:43:29.092Z,31.00
2024-01-06T07:45:56.155Z,36.57
2024-01-06T07:48:23.145Z,31.30
2024-01-06T07:50:50.332Z,35.40
2024-01-06T07:53:17.175Z,33.93
2024-01-06T07:55:44.050Z,35.17
2024-01-06T07:58:11.060Z,32.80
2024-01-06T08:00:37.986Z,31.10
2024-01-06T08:03:07.601Z,29.80
2024-01-06T08:05:34.844Z,29.73
2024-01-06T08:08:01.843Z,30.83
2024-01-06T08:10:28.687Z,29.40
2024-01-06T08:12:55.980Z,30.37
2024-01-06T08:15:22.995Z,28.90
2024-01-06T08:17:50.434Z,30.43
2024-01-06T08:20:17.483Z,31.03
2024-01-06T08:22:45.112Z,30.50
2024-01-06T08:25:12.201Z,31.87
2024-01-06T08:27:39.309Z,28.33
2024-01-06T08:30:07.548Z,28.83
2024-01-06T08:32:34.627Z,26.37
2024-01-06T08:35:01.687Z,26.73
2024-01-06T08:37:28.539Z,27.70
2024-01-06T08:39:55.463Z,27.07
2024-01-06T08:42:22.938Z,27.77
2024-01-06T08:44:49.833Z,26.13
2024-01-06T08:47:16.657Z,27.10
2024-01-06T08:49:43.771Z,28.33
2024-01-06T08:52:10.672Z,30.00
2024-01-06T08:54:37.613Z,26.13
2024-01-06T08:57:04.667Z,26.77
2024-01-06T08:59:31.751Z,27.50
2024-01-06T09:01:58.669Z,28.63
2024-01-06T09:04:25.675Z,29.13
2024-01-06T09:06:52.901Z,27.37
2024-01-06T09:09:19.939Z,30.07
2024-01-06T09:11:51.572Z,30.90
2024-01-06T09:14:19.666Z,29.83
2024-01-06T09:16:46.614Z,31.73
2024-01-06T09:19:14.879Z,31.83
2024-01-06T09:21:41.851Z,28.37
2024-01-06T09:24:09.340Z,27.23
2024-01-06T09:26:36.646Z,24.77
2024-01-06T09:29:04.568Z,27.23
2024-01-06T09:31:32.436Z,27.10
2024-01-06T09:34:06.049Z,25.60
2024-01-06T09:36:33.489Z,26.33
2024-01-06T09:39:01.224Z,25.17
2024-01-06T09:41:28.052Z,25.13
2024-01-06T09:43:54.908Z,24.53
2024-01-06T09:46:29.030Z,25.97
2024-01-06T09:48:57.644Z,26.70
2024-01-06T09:51:25.389Z,25.23
2024-01-06T09:53:55.723Z,25.33
2024-01-06T09:56:23.882Z,24.47
2024-01-06T09:58:51.356Z,23.87
2024-01-06T10:01:21.922Z,24.80
2024-01-06T10:03:50.109Z,25.57
2024-01-06T10:06:18.218Z,25.50
2024-01-06T10:08:54.703Z,24.77
2024-01-06T10:11:23.440Z,24.10
2024-01-06T10:13:51.836Z,24.03
2024-01-06T10:16:20.246Z,24.70
2024-01-06T10:18:52.444Z,25.30
2024-01-06T10:21:24.453Z,23.57
2024-01-06T10:23:52.640Z,24.23
2024-01-06T10:26:20.190Z,23.47
2024-01-06T10:28:47.248Z,23.13
2024-01-06T10:31:15.275Z,23.30
2024-01-06T10:33:43.157Z,25.63
2024-01-06T10:36:12.425Z,25.77
2024-01-06T10:38:39.228Z,24.43
2024-01-06T10:41:09.286Z,24.03
2024-01-06T10:43:39.687Z,26.50
2024-01-06T10:46:11.373Z,27.37
2024-01-06T10:48:46.227Z,27.30
2024-01-06T10:51:15.256Z,25.73
2024-01-06T10:53:43.195Z,29.10
2024-01-06T10:56:14.592Z,26.40
2024-01-06T10:58:49.758Z,24.67
2024-01-06T11:01:20.818Z,25.60
2024-01-06T11:03:49.774Z,24.00
2024-01-06T11:06:19.284Z,26.73
2024-01-06T11:09:03.545Z,28.20
2024-01-06T11:11:31.984Z,26.23
2024-01-06T11:14:19.269Z,26.43
2024-01-06T11:16:46.474Z,25.30
2024-01-06T11:19:38.108Z,24.80
2024-01-06T11:22:24.351Z,23.87
2024-01-06T11:24:52.392Z,23.40
2024-01-06T11:27:20.577Z,23.17
2024-01-06T11:29:47.668Z,25.40
2024-01-06T11:32:27.014Z,25.73
2024-01-06T11:34:55.361Z,27.13
2024-01-06T11:37:26.031Z,25.43
2024-01-06T11:39:54.512Z,29.37
2024-01-06T11:42:21.679Z,26.37
2024-01-06T11:44:51.360Z,28.60
2024-01-06T11:47:24.747Z,25.73
2024-01-06T11:49:55.363Z,24.33
2024-01-06T11:52:22.657Z,24.77
2024-01-06T11:54:51.184Z,25.07
2024-01-06T11:57:18.318Z,27.40
2024-01-06T11:59:45.137Z,24.33
2024-01-06T12:02:13.133Z,25.47
2024-01-06T12:04:42.219Z,24.87
2024-01-06T12:07:10.139Z,25.17
2024-01-06T12:09:37.308Z,25.20
2024-01-06T12:12:05.893Z,28.43
2024-01-06T12:14:33.448Z,29.37
2024-01-06T12:17:04.522Z,25.17
2024-01-06T12:19:33.638Z,22.97
2024-01-06T12:22:02.406Z,23.70
2024-01-06T12:24:29.889Z,24.53
2024-01-06T12:26:57.584Z,25.63
2024-01-06T12:29:27.213Z,24.37
2024-01-06T12:31:54.254Z,24.90
2024-01-06T12:34:21.869Z,24.37
2024-01-06T12:36:49.308Z,24.50
2024-01-06T12:39:17.659Z,25.20
2024-01-06T12:41:45.324Z,26.60
2024-01-06T12:44:12.230Z,25.67
2024-01-06T12:46:39.189Z,24.07
2024-01-06T12:49:06.168Z,26.60
2024-01-06T12:51:33.150Z,25.43
2024-01-06T12:54:00.430Z,28.43
2024-01-06T12:56:27.332Z,26.73
2024-01-06T12:58:54.447Z,32.20
2024-01-06T13:01:21.493Z,32.10
2024-01-06T13:03:48.604Z,28.30
2024-01-06T13:06:17.311Z,23.67
2024-01-06T13:08:44.430Z,25.03
2024-01-06T13:11:11.449Z,24.97
2024-01-06T13:13:38.825Z,25.60
2024-01-06T13:16:07.584Z,25.20
2024-01-06T13:18:34.690Z,25.73
2024-01-06T13:21:03.149Z,25.03
2024-01-06T13:23:30.609Z,24.67
2024-01-06T13:25:58.893Z,25.60
2024-01-06T13:28:25.832Z,26.43
2024-01-06T13:30:53.482Z,26.30
2024-01-06T13:33:20.663Z,27.50
2024-01-06T13:35:47.832Z,27.40
2024-01-06T13:38:15.895Z,28.13
2024-01-06T13:40:44.662Z,31.13
2024-01-06T13:43:17.240Z,28.80
2024-01-06T13:45:45.539Z,27.13
2024-01-06T13:48:12.771Z,26.83
2024-01-06T13:50:40.787Z,27.67
2024-01-06T13:53:08.083Z,26.27
2024-01-06T13:55:35.363Z,26.60
2024-01-06T13:58:03.212Z,29.00
2024-01-06T14:00:30.951Z,27.97
2024-01-06T14:02:58.423Z,30.07
2024-01-06T14:05:26.037Z,28.90
2024-01-06T14:07:53.526Z,28.53
2024-01-06T14:10:21.753Z,28.83
2024-01-06T14:12:50.266Z,27.83
2024-01-06T14:15:17.395Z,28.23
2024-01-06T14:17:51.038Z,28.00
2024-01-06T14:20:19.014Z,27.60
2024-01-06T14:22:46.985Z,27.67
2024-01-06T14:25:15.037Z,27.53
2024-01-06T14:27:42.678Z,26.43
2024-01-06T14:30:11.126Z,25.20
2024-01-06T14:32:39.217Z,26.37
2024-01-06T14:35:07.693Z,27.13
2024-01-06T14:37:34.760Z,27.03
2024-01-06T14:40:06.996Z,27.00
2024-01-06T14:42:34.036Z,26.30
2024-01-06T14:45:01.032Z,27.30
2024-01-06T14:47:28.469Z,25.97
2024-01-06T14:49:55.717Z,28.10
2024-01-06T14:52:23.082Z,25.67
2024-01-06T14:54:50.775Z,26.17
2024-01-06T14:57:17.772Z,27.50
2024-01-06T14:59:44.672Z,25.80
2024-01-06T15:02:11.722Z,26.70
2024-01-06T15:04:38.941Z,27.87
2024-01-06T15:07:06.020Z,30.20
2024-01-06T15:09:33.059Z,30.90
2024-01-06T15:12:00.019Z,28.57
2024-01-06T15:14:27.013Z,28.37
2024-01-06T15:16:54.042Z,31.63
2024-01-06T15:19:21.344Z,38.77
2024-01-06T15:21:51.098Z,32.73
2024-01-06T15:24:19.365Z,32.87
2024-01-06T15:26:46.339Z,29.73
2024-01-06T15:29:13.916Z,35.73
2024-01-06T15:31:41.001Z,31.07
2024-01-06T15:34:08.108Z,30.43
2024-01-06T15:36:36.151Z,34.63
2024-01-06T15:39:03.842Z,26.97
2024-01-06T15:41:30.754Z,27.80
2024-01-06T15:43:57.751Z,32.90
2024-01-06T15:46:24.758Z,32.27
2024-01-06T15:48:51.746Z,28.27
2024-01-06T15:51:18.793Z,28.97
2024-01-06T15:53:46.185Z,28.20
2024-01-06T15:56:13.258Z,27.87
2024-01-06T15:58:40.147Z,30.60
2024-01-06T16:01:07.370Z,31.17
2024-01-06T16:03:34.595Z,26.27
2024-01-06T16:06:01.604Z,29.10
2024-01-06T16:08:28.772Z,24.90
2024-01-06T16:10:55.609Z,24.57
2024-01-06T16:13:22.456Z,23.30
2024-01-06T16:15:49.388Z,23.37
2024-01-06T16:18:16.748Z,26.90
2024-01-06T16:20:43.838Z,22.87
2024-01-06T16:23:14.835Z,26.70
2024-01-06T16:25:42.000Z,20.77
2024-01-06T16:28:12.741Z,23.23
2024-01-06T16:30:40.409Z,22.50
2024-01-06T16:33:08.266Z,23.63
2024-01-06T16:35:35.523Z,22.63
2024-01-06T16:38:03.012Z,20.73
2024-01-06T16:40:30.316Z,19.67
2024-01-06T16:42:57.279Z,22.20
2024-01-06T16:45:24.153Z,22.23
2024-01-06T16:47:51.245Z,20.73
2024-01-06T16:50:18.152Z,20.07
2024-01-06T16:52:45.069Z,23.30
2024-01-06T16:55:12.439Z,18.60
2024-01-06T16:57:39.375Z,19.10
2024-01-06T17:00:06.578Z,30.27
2024-01-06T17:02:33.516Z,21.33
2024-01-06T17:05:00.853Z,28.80
2024-01-06T17:07:27.921Z,22.30
2024-01-06T17:09:56.236Z,17.97
2024-01-06T17:12:23.442Z,18.30
2024-01-06T17:14:50.277Z,18.23
2024-01-06T17:17:17.148Z,30.87
2024-01-06T17:19:44.105Z,22.63
2024-01-06T17:22:11.197Z,18.33
2024-01-06T17:24:38.074Z,18.07
2024-01-06T17:27:05.038Z,15.87
2024-01-06T17:29:32.231Z,18.30
2024-01-06T17:31:59.600Z,22.50
2024-01-06T17:34:26.608Z,19.27
2024-01-06T17:36:53.648Z,18.07
2024-01-06T17:39:20.634Z,17.60
2024-01-06T17:41:57.118Z,17.13
2024-01-06T17:44:28.041Z,15.67
2024-01-06T17:46:54.838Z,15.90
2024-01-06T17:49:22.444Z,17.20
2024-01-06T17:51:49.566Z,19.07
2024-01-06T17:54:16.752Z,18.33
2024-01-06T17:56:43.618Z,19.37
2024-01-06T17:59:11.355Z,15.27
2024-01-06T18:01:38.501Z,14.70
2024-01-06T18:04:06.986Z,13.43
2024-01-06T18:06:33.947Z,15.07
2024-01-06T18:09:02.369Z,14.00
2024-01-06T18:11:29.338Z,12.90
2024-01-06T18:13:56.144Z,12.30
2024-01-06T18:16:22.995Z,13.13
2024-01-06T18:18:50.285Z,11.60
2024-01-06T18:21:18.432Z,12.73
2024-01-06T18:23:45.319Z,12.43
2024-01-06T18:26:14.437Z,12.40
2024-01-06T18:28:41.265Z,28.00
2024-01-06T18:31:08.367Z,13.77
2024-01-06T18:33:35.346Z,25.57
2024-01-06T18:36:02.345Z,13.37
2024-01-06T18:38:29.209Z,13.07
2024-01-06T18:40:59.784Z,12.33
2024-01-06T18:43:27.359Z,11.37
2024-01-06T18:45:54.882Z,12.53
2024-01-06T18:48:22.477Z,12.40
2024-01-06T18:50:49.551Z,12.40
2024-01-06T18:53:16.765Z,13.03
2024-01-06T18:55:43.619Z,13.03
2024-01-06T18:58:10.776Z,13.37
2024-01-06T19:00:37.837Z,13.20
2024-01-06T19:03:05.002Z,12.53
2024-01-06T19:05:34.634Z,12.37
2024-01-06T19:08:01.674Z,14.67
2024-01-06T19:10:29.167Z,13.23
2024-01-06T19:12:56.099Z,13.60
2024-01-06T19:15:22.923Z,13.27
2024-01-06T19:17:50.393Z,12.10
2024-01-06T19:20:17.674Z,13.03
2024-01-06T19:22:57.417Z,13.10
2024-01-06T19:25:29.735Z,13.40
2024-01-06T19:27:56.835Z,13.67
2024-01-06T19:30:23.962Z,12.67
2024-01-06T19:32:50.867Z,14.70
2024-01-06T19:35:17.930Z,14.07
2024-01-06T19:37:44.692Z,15.60
2024-01-06T19:40:11.905Z,14.07
2024-01-06T19:42:39.038Z,15.27
2024-01-06T19:45:06.205Z,14.37
2024-01-06T19:47:33.775Z,14.43
2024-01-06T19:50:00.720Z,14.60
2024-01-06T19:52:27.590Z,14.70
2024-01-06T19:54:54.637Z,13.27
2024-01-06T19:57:21.950Z,13.53
2024-01-06T19:59:51.006Z,14.83
2024-01-06T20:02:17.923Z,17.70
2024-01-06T20:04:44.962Z,16.37
2024-01-06T20:07:12.108Z,14.93
2024-01-06T20:09:39.428Z,13.83
2024-01-06T20:12:06.501Z,16.77
2024-01-06T20:14:33.482Z,16.60
2024-01-06T20:17:00.324Z,15.50
2024-01-06T20:19:27.729Z,14.83
2024-01-06T20:21:54.677Z,18.80
2024-01-06T20:24:21.742Z,15.90
2024-01-06T20:26:48.664Z,17.90
2024-01-06T20:29:15.585Z,13.47
2024-01-06T20:31:42.499Z,15.73
2024-01-06T20:34:09.844Z,15.10
2024-01-06T20:36:36.822Z,14.10
2024-01-06T20:39:03.812Z,9.13
2024-01-06T20:41:30.694Z,13.83
2024-01-06T20:43:57.664Z,14.07
2024-01-06T20:46:25.449Z,14.10
2024-01-06T20:48:52.427Z,13.53
2024-01-06T20:51:19.738Z,14.03
2024-01-06T20:53:46.688Z,13.47
2024-01-06T20:56:14.697Z,14.00
2024-01-06T20:58:41.852Z,12.93
2024-01-06T21:01:09.043Z,14.57
2024-01-06T21:03:36.433Z,14.07
2024-01-06T21:06:03.381Z,12.97
2024-01-06T21:08:30.384Z,15.17
2024-01-06T21:10:57.172Z,17.07
2024-01-06T21:13:24.138Z,12.17
2024-01-06T21:15:51.030Z,12.73
2024-01-06T21:18:18.139Z,13.83
2024-01-06T21:20:45.444Z,13.27
2024-01-06T21:23:12.403Z,12.60
2024-01-06T21:25:39.274Z,13.63
2024-01-06T21:28:07.133Z,13.33
2024-01-06T21:30:36.232Z,12.43
2024-01-06T21:33:03.572Z,13.23
2024-01-06T21:35:31.361Z,11.83
2024-01-06T21:37:58.745Z,12.67
2024-01-06T21:40:28.759Z,12.07
2024-01-06T21:42:55.979Z,13.10
2024-01-06T21:45:22.870Z,13.20
2024-01-06T21:47:52.872Z,13.93
2024-01-06T21:50:19.968Z,12.53
2024-01-06T21:52:46.957Z,11.83
2024-01-06T21:55:13.825Z,10.53
2024-01-06T21:57:40.993Z,11.63
2024-01-06T22:00:13.208Z,11.03
2024-01-06T22:02:40.325Z,10.10
2024-01-06T22:05:07.247Z,9.43
2024-01-06T22:07:34.241Z,9.53
2024-01-06T22:10:01.278Z,10.00
2024-01-06T22:12:28.228Z,9.70
2024-01-06T22:14:55.066Z,9.37
2024-01-06T22:17:22.664Z,10.33
2024-01-06T22:19:49.533Z,9.47
2024-01-06T22:22:16.535Z,9.40
2024-01-06T22:24:43.629Z,10.10
2024-01-06T22:27:11.876Z,9.47
2024-01-06T22:29:40.920Z,8.80
2024-01-06T22:32:09.378Z,9.60
2024-01-06T22:34:36.432Z,8.83
2024-01-06T22:37:03.534Z,9.57
2024-01-06T22:39:30.474Z,8.77
2024-01-06T22:41:57.402Z,8.90
2024-01-06T22:44:24.636Z,9.10
2024-01-06T22:46:51.451Z,8.70
2024-01-06T22:49:19.468Z,8.07
2024-01-06T22:51:46.542Z,7.23
2024-01-06T22:54:13.430Z,8.27
2024-01-06T22:56:40.453Z,8.47
2024-01-06T22:59:07.307Z,8.83
2024-01-06T23:01:34.213Z,8.43
2024-01-06T23:04:01.353Z,7.97
2024-01-06T23:06:29.788Z,7.37
2024-01-06T23:08:57.135Z,7.40
2024-01-06T23:11:24.012Z,7.60
2024-01-06T23:13:51.356Z,7.07
2024-01-06T23:16:18.526Z,7.53
2024-01-06T23:18:45.485Z,7.07
2024-01-06T23:21:12.489Z,6.90
2024-01-06T23:23:40.316Z,6.67
2024-01-06T23:26:07.680Z,7.47
2024-01-06T23:28:34.560Z,7.10
2024-01-06T23:31:01.965Z,6.60
2024-01-06T23:33:29.514Z,6.63
2024-01-06T23:35:57.899Z,6.40
2024-01-06T23:38:24.788Z,6.47
2024-01-06T23:40:51.788Z,6.60
2024-01-06T23:43:18.672Z,5.93
2024-01-06T23:45:45.628Z,6.07
2024-01-06T23:48:12.545Z,6.47
2024-01-06T23:50:39.381Z,5.60
2024-01-06T23:53:06.251Z,6.43
2024-01-06T23:55:33.232Z,5.67
2024-01-06T23:58:00.128Z,6.30
